createdAt,value
2023-03-20T00:01:25.173Z,99723.81
2023-03-20T00:03:52.920Z,99707.94
2023-03-20T00:06:25.104Z,99718.44
2023-03-20T00:08:54.013Z,99720.09
2023-03-20T00:11:43.174Z,99725.50
2023-03-20T00:14:13.243Z,99719.63
2023-03-20T00:16:46.509Z,99702.97
2023-03-20T00:19:15.564Z,99719.13
2023-03-20T00:21:47.632Z,99704.63
2023-03-20T00:24:16.223Z,99709.09
2023-03-20T00:26:56.219Z,99698.81
2023-03-20T00:29:27.934Z,99702.72
2023-03-20T00:31:55.574Z,99701.00
2023-03-20T00:34:24.421Z,99703.34
2023-03-20T00:36:52.034Z,99707.66
2023-03-20T00:39:20.016Z,99687.66
2023-03-20T00:41:53.988Z,99701.84
2023-03-20T00:44:34.297Z,99701.69
2023-03-20T00:47:05.775Z,99710.09
2023-03-20T00:49:36.042Z,99674.78
2023-03-20T00:52:03.896Z,99693.00
2023-03-20T00:54:31.365Z,99686.91
2023-03-20T00:57:08.141Z,99706.16
2023-03-20T00:59:41.806Z,99690.97
2023-03-20T01:02:11.771Z,99684.75
2023-03-20T01:04:41.510Z,99691.56
2023-03-20T01:07:13.997Z,99691.56
2023-03-20T01:09:44.250Z,99704.00
2023-03-20T01:12:12.685Z,99694.13
2023-03-20T01:14:42.703Z,99691.88
2023-03-20T01:17:21.296Z,99695.41
2023-03-20T01:19:49.805Z,99692.50
2023-03-20T01:22:18.282Z,99674.09
2023-03-20T01:24:46.803Z,99671.81
2023-03-20T01:27:19.336Z,99681.19
2023-03-20T01:29:49.251Z,99684.91
2023-03-20T01:32:18.757Z,99684.47
2023-03-20T01:34:49.797Z,99679.91
2023-03-20T01:37:23.543Z,99675.16
2023-03-20T01:39:51.620Z,99680.81
2023-03-20T01:42:18.683Z,99674.13
2023-03-20T01:44:46.848Z,99665.84
2023-03-20T01:47:19.707Z,99664.66
2023-03-20T01:50:24.333Z,99667.94
2023-03-20T01:55:54.467Z,99650.78
2023-03-20T01:58:31.652Z,99654.13
2023-03-20T02:00:59.602Z,99650.41
2023-03-20T02:03:27.528Z,99645.91
2023-03-20T02:06:15.911Z,99659.41
2023-03-20T02:09:09.725Z,99647.13
2023-03-20T02:11:44.694Z,99658.47
2023-03-20T02:14:12.902Z,99629.72
2023-03-20T02:16:53.392Z,99648.50
2023-03-20T02:19:56.519Z,99639.00
2023-03-20T02:23:01.747Z,99651.47
2023-03-20T02:25:47.731Z,99652.28
2023-03-20T02:28:29.249Z,99655.13
2023-03-20T02:31:05.868Z,99651.31
2023-03-20T02:33:59.837Z,99655.47
2023-03-20T02:37:16.181Z,99665.28
2023-03-20T02:39:46.453Z,99660.72
2023-03-20T02:42:38.458Z,99656.31
2023-03-20T02:45:19.205Z,99628.50
2023-03-20T02:48:03.638Z,99638.63
2023-03-20T02:50:37.743Z,99651.47
2023-03-20T02:53:46.571Z,99639.53
2023-03-20T02:56:32.710Z,99642.75
2023-03-20T02:59:18.152Z,99640.69
2023-03-20T03:01:53.731Z,99632.81
2023-03-20T03:04:26.541Z,99645.56
2023-03-20T03:06:56.157Z,99639.97
2023-03-20T03:09:34.085Z,99633.53
2023-03-20T03:12:09.705Z,99634.69
2023-03-20T03:15:00.468Z,99615.00
2023-03-20T03:17:36.615Z,99612.59
2023-03-20T03:20:13.130Z,99622.72
2023-03-20T03:22:48.145Z,99628.78
2023-03-20T03:25:18.388Z,99606.25
2023-03-20T03:27:52.657Z,99623.66
2023-03-20T03:30:27.215Z,99625.84
2023-03-20T03:33:10.054Z,99618.47
2023-03-20T03:35:38.012Z,99602.38
2023-03-20T03:38:25.958Z,99620.53
2023-03-20T03:41:31.338Z,99620.06
2023-03-20T03:44:17.737Z,99616.97
2023-03-20T03:46:59.247Z,99610.31
2023-03-20T03:49:31.792Z,99609.34
2023-03-20T03:52:12.896Z,99593.56
2023-03-20T03:54:43.540Z,99611.00
2023-03-20T03:57:38.681Z,99608.09
2023-03-20T04:00:18.210Z,99602.72
2023-03-20T04:02:47.801Z,99613.31
2023-03-20T04:05:19.266Z,99598.19
2023-03-20T04:07:47.537Z,99605.22
2023-03-20T04:10:15.228Z,99600.91
2023-03-20T04:12:46.231Z,99600.09
2023-03-20T04:15:14.815Z,99590.59
2023-03-20T04:17:45.074Z,99588.69
2023-03-20T04:20:15.362Z,99586.31
2023-03-20T04:22:42.476Z,99594.09
2023-03-20T04:25:26.711Z,99577.97
2023-03-20T04:27:56.674Z,99591.31
2023-03-20T04:30:34.810Z,99591.53
2023-03-20T04:33:18.111Z,99582.41
2023-03-20T04:36:08.906Z,99590.72
2023-03-20T04:38:42.494Z,99598.97
2023-03-20T04:41:09.902Z,99595.69
2023-03-20T04:43:37.032Z,99605.53
2023-03-20T04:46:04.734Z,99590.16
2023-03-20T04:48:32.184Z,99596.91
2023-03-20T04:51:01.454Z,99590.75
2023-03-20T04:53:40.072Z,99590.66
2023-03-20T04:56:07.763Z,99596.69
2023-03-20T04:58:36.628Z,99585.44
2023-03-20T05:01:04.445Z,99576.59
2023-03-20T05:03:31.803Z,99572.84
2023-03-20T05:05:59.522Z,99580.84
2023-03-20T05:08:27.898Z,99589.94
2023-03-20T05:10:59.525Z,99588.41
2023-03-20T05:13:45.501Z,99575.25
2023-03-20T05:16:27.995Z,99600.31
2023-03-20T05:19:01.113Z,99593.91
2023-03-20T05:21:49.754Z,99573.59
2023-03-20T05:24:35.658Z,99585.09
2023-03-20T05:27:32.202Z,99575.09
2023-03-20T05:30:23.774Z,99594.19
2023-03-20T05:33:09.470Z,99588.47
2023-03-20T05:35:49.044Z,99579.69
2023-03-20T05:38:36.563Z,99579.53
2023-03-20T05:41:23.442Z,99570.00
2023-03-20T05:44:10.988Z,99582.00
2023-03-20T05:47:16.113Z,99569.88
2023-03-20T05:50:02.912Z,99587.66
2023-03-20T05:52:51.513Z,99581.53
2023-03-20T05:55:44.645Z,99582.72
2023-03-20T05:58:45.500Z,99584.56
2023-03-20T06:01:57.120Z,99586.22
2023-03-20T06:04:28.411Z,99583.91
2023-03-20T06:07:28.111Z,99589.72
2023-03-20T06:10:07.188Z,99579.88
2023-03-20T06:12:35.617Z,99579.84
2023-03-20T06:15:03.067Z,99575.72
2023-03-20T06:17:34.138Z,99591.34
2023-03-20T06:20:08.096Z,99575.09
2023-03-20T06:22:38.524Z,99577.28
2023-03-20T06:25:09.244Z,99565.97
2023-03-20T06:27:42.031Z,99565.81
2023-03-20T06:30:18.855Z,99565.47
2023-03-20T06:32:47.613Z,99589.38
2023-03-20T06:35:18.239Z,99572.97
2023-03-20T06:37:47.436Z,99573.28
2023-03-20T06:40:22.826Z,99583.41
2023-03-20T06:42:50.446Z,99559.47
2023-03-20T06:45:18.483Z,99563.41
2023-03-20T06:47:51.380Z,99556.88
2023-03-20T06:50:22.144Z,99566.22
2023-03-20T06:52:49.752Z,99566.03
2023-03-20T06:55:50.826Z,99564.59
2023-03-20T06:58:20.791Z,99561.69
2023-03-20T07:00:57.928Z,99550.31
2023-03-20T07:03:28.654Z,99566.19
2023-03-20T07:05:58.278Z,99548.63
2023-03-20T07:08:26.901Z,99563.94
2023-03-20T07:10:55.214Z,99538.22
2023-03-20T07:13:22.339Z,99567.94
2023-03-20T07:16:04.478Z,99534.09
2023-03-20T07:18:40.440Z,99538.53
2023-03-20T07:21:12.723Z,99553.75
2023-03-20T07:23:56.083Z,99533.88
2023-03-20T07:26:23.147Z,99534.78
2023-03-20T07:28:52.031Z,99550.53
2023-03-20T07:31:46.812Z,99525.59
2023-03-20T07:34:49.496Z,99532.50
2023-03-20T07:37:35.462Z,99511.41
2023-03-20T07:40:09.437Z,99553.72
2023-03-20T07:42:50.615Z,99512.06
2023-03-20T07:46:03.250Z,99507.44
2023-03-20T07:48:33.048Z,99512.94
2023-03-20T07:51:01.560Z,99513.97
2023-03-20T07:53:28.957Z,99522.53
2023-03-20T07:55:55.967Z,99519.25
2023-03-20T07:58:28.606Z,99531.19
2023-03-20T08:01:00.887Z,99534.41
2023-03-20T08:03:28.310Z,99523.78
2023-03-20T08:06:09.799Z,99534.19
2023-03-20T08:08:38.316Z,99521.59
2023-03-20T08:11:06.035Z,99514.91
2023-03-20T08:13:34.803Z,99533.59
2023-03-20T08:16:02.158Z,99523.06
2023-03-20T08:18:29.818Z,99529.16
2023-03-20T08:20:56.940Z,99514.13
2023-03-20T08:23:23.963Z,99525.81
2023-03-20T08:25:52.278Z,99507.91
2023-03-20T08:28:19.441Z,99508.69
2023-03-20T08:30:47.575Z,99512.22
2023-03-20T08:33:16.503Z,99490.97
2023-03-20T08:35:44.258Z,99514.28
2023-03-20T08:38:13.067Z,99493.88
2023-03-20T08:40:43.516Z,99492.84
2023-03-20T08:43:10.714Z,99509.09
2023-03-20T08:45:38.029Z,99509.66
2023-03-20T08:48:05.529Z,99516.59
2023-03-20T08:50:33.086Z,99501.25
2023-03-20T08:53:00.154Z,99504.09
2023-03-20T08:55:27.791Z,99494.41
2023-03-20T08:58:00.220Z,99491.41
2023-03-20T09:00:27.931Z,99486.75
2023-03-20T09:02:55.373Z,99500.78
2023-03-20T09:05:22.680Z,99488.53
2023-03-20T09:07:49.964Z,99491.63
2023-03-20T09:10:17.409Z,99475.50
2023-03-20T09:12:44.591Z,99466.72
2023-03-20T09:15:12.601Z,99495.31
2023-03-20T09:17:40.274Z,99491.31
2023-03-20T09:20:08.520Z,99481.53
2023-03-20T09:22:36.087Z,99486.22
2023-03-20T09:25:03.861Z,99487.81
2023-03-20T09:27:35.309Z,99482.19
2023-03-20T09:30:02.588Z,99485.75
2023-03-20T09:32:30.822Z,99476.38
2023-03-20T09:35:00.984Z,99462.34
2023-03-20T09:37:36.332Z,99455.38
2023-03-20T09:40:06.908Z,99446.59
2023-03-20T09:43:18.594Z,99462.88
2023-03-20T09:45:51.987Z,99452.75
2023-03-20T09:49:10.543Z,99459.75
2023-03-20T09:51:42.353Z,99447.97
2023-03-20T09:54:29.237Z,99449.75
2023-03-20T09:56:58.179Z,99434.00
2023-03-20T09:59:27.861Z,99448.06
2023-03-20T10:02:01.458Z,99431.38
2023-03-20T10:04:31.003Z,99433.97
2023-03-20T10:06:58.685Z,99436.53
2023-03-20T10:09:34.376Z,99436.44
2023-03-20T10:12:18.413Z,99422.09
2023-03-20T10:15:14.201Z,99412.44
2023-03-20T10:17:47.721Z,99410.59
2023-03-20T10:20:26.914Z,99404.50
2023-03-20T10:22:58.622Z,99407.06
2023-03-20T10:25:38.127Z,99402.53
2023-03-20T10:28:17.877Z,99405.47
2023-03-20T10:31:03.343Z,99399.91
2023-03-20T10:33:39.616Z,99402.81
2023-03-20T10:36:20.702Z,99385.47
2023-03-20T10:38:48.979Z,99394.84
2023-03-20T10:41:33.185Z,99378.78
2023-03-20T10:44:01.397Z,99388.03
2023-03-20T10:46:32.275Z,99388.88
2023-03-20T10:49:08.726Z,99376.78
2023-03-20T10:51:48.094Z,99355.16
2023-03-20T10:54:31.261Z,99371.34
2023-03-20T10:57:07.053Z,99378.41
2023-03-20T10:59:54.129Z,99340.53
2023-03-20T11:02:26.239Z,99362.09
2023-03-20T11:04:54.079Z,99362.09
2023-03-20T11:08:24.610Z,99362.91
2023-03-20T11:11:02.792Z,99344.66
2023-03-20T11:13:44.299Z,99345.50
2023-03-20T11:16:35.855Z,99358.81
2023-03-20T11:19:09.964Z,99355.50
2023-03-20T11:21:45.921Z,99328.19
2023-03-20T11:24:32.062Z,99339.69
2023-03-20T11:27:29.140Z,99342.75
2023-03-20T11:30:03.481Z,99338.25
2023-03-20T11:32:50.963Z,99310.16
2023-03-20T11:35:26.517Z,99334.75
2023-03-20T11:38:08.482Z,99316.34
2023-03-20T11:40:36.667Z,99319.81
2023-03-20T11:43:19.374Z,99324.44
2023-03-20T11:45:49.825Z,99310.50
2023-03-20T11:48:37.466Z,99327.53
2023-03-20T11:51:15.706Z,99315.00
2023-03-20T11:54:01.777Z,99305.06
2023-03-20T11:56:32.048Z,99326.81
2023-03-20T11:59:20.131Z,99299.97
2023-03-20T12:01:53.654Z,99296.09
2023-03-20T12:04:29.361Z,99290.84
2023-03-20T12:07:08.951Z,99286.50
2023-03-20T12:09:49.586Z,99283.16
2023-03-20T12:12:24.036Z,99288.25
2023-03-20T12:14:55.285Z,99286.25
2023-03-20T12:17:29.429Z,99282.84
2023-03-20T12:20:12.217Z,99264.03
2023-03-20T12:22:54.537Z,99271.16
2023-03-20T12:25:25.939Z,99257.13
2023-03-20T12:30:59.118Z,99269.50
2023-03-20T12:33:57.325Z,99259.22
2023-03-20T12:36:32.891Z,99260.38
2023-03-20T12:39:03.093Z,99259.69
2023-03-20T12:41:39.371Z,99262.28
2023-03-20T12:44:25.552Z,99266.03
2023-03-20T12:47:34.768Z,99252.66
2023-03-20T12:50:20.416Z,99261.47
2023-03-20T12:53:20.451Z,99254.38
2023-03-20T12:56:17.657Z,99251.25
2023-03-20T12:58:48.855Z,99253.03
2023-03-20T13:01:33.353Z,99241.63
2023-03-20T13:04:26.811Z,99237.44
2023-03-20T13:07:14.408Z,99242.97
2023-03-20T13:10:27.483Z,99233.22
2023-03-20T13:13:36.653Z,99229.56
2023-03-20T13:16:19.914Z,99225.94
2023-03-20T13:19:12.158Z,99226.09
2023-03-20T13:21:56.886Z,99236.59
2023-03-20T13:24:39.734Z,99221.31
2023-03-20T13:27:26.104Z,99228.16
2023-03-20T13:30:24.365Z,99220.28
2023-03-20T13:33:10.373Z,99216.56
2023-03-20T13:35:46.455Z,99206.69
2023-03-20T13:38:20.827Z,99210.66
2023-03-20T13:40:56.460Z,99208.47
2023-03-20T13:44:01.957Z,99218.56
2023-03-20T13:46:53.488Z,99199.69
2023-03-20T13:49:37.823Z,99214.28
2023-03-20T13:52:14.970Z,99199.69
2023-03-20T13:55:03.089Z,99206.25
2023-03-20T13:58:18.307Z,99195.38
2023-03-20T14:01:27.138Z,99193.84
2023-03-20T14:03:57.398Z,99190.53
2023-03-20T14:06:30.845Z,99180.34
2023-03-20T14:08:59.946Z,99170.81
2023-03-20T14:11:35.825Z,99167.47
2023-03-20T14:14:12.525Z,99176.84
2023-03-20T14:16:39.899Z,99175.66
2023-03-20T14:19:25.516Z,99176.19
2023-03-20T14:21:56.315Z,99156.69
2023-03-20T14:24:24.749Z,99176.47
2023-03-20T14:26:57.275Z,99184.81
2023-03-20T14:29:30.515Z,99185.34
2023-03-20T14:32:26.214Z,99182.06
2023-03-20T14:35:03.134Z,99183.53
2023-03-20T14:37:35.657Z,99175.63
2023-03-20T14:40:08.479Z,99176.84
2023-03-20T14:42:59.893Z,99167.47
2023-03-20T14:45:41.730Z,99174.63
2023-03-20T14:48:32.923Z,99164.75
2023-03-20T14:51:12.026Z,99171.00
2023-03-20T14:53:41.666Z,99152.22
2023-03-20T14:56:16.125Z,99161.31
2023-03-20T14:59:03.218Z,99176.63
2023-03-20T15:01:45.897Z,99169.19
2023-03-20T15:04:33.784Z,99169.16
2023-03-20T15:07:11.506Z,99158.69
2023-03-20T15:09:45.062Z,99166.31
2023-03-20T15:12:22.003Z,99165.56
2023-03-20T15:14:53.740Z,99170.09
2023-03-20T15:17:27.550Z,99153.22
2023-03-20T15:20:08.690Z,99172.56
2023-03-20T15:22:35.840Z,99168.63
2023-03-20T15:25:08.957Z,99167.63
2023-03-20T15:27:37.813Z,99156.06
2023-03-20T15:30:19.923Z,99163.47
2023-03-20T15:32:57.790Z,99150.94
2023-03-20T15:35:28.316Z,99153.81
2023-03-20T15:37:58.037Z,99166.56
2023-03-20T15:40:37.104Z,99162.84
2023-03-20T15:43:31.210Z,99165.94
2023-03-20T15:46:17.281Z,99142.00
2023-03-20T15:48:50.050Z,99169.91
2023-03-20T15:51:19.210Z,99143.47
2023-03-20T15:53:48.069Z,99174.63
2023-03-20T15:56:19.417Z,99166.25
2023-03-20T15:58:49.523Z,99170.94
2023-03-20T16:01:22.263Z,99167.97
2023-03-20T16:03:51.497Z,99177.34
2023-03-20T16:06:22.245Z,99161.53
2023-03-20T16:09:07.230Z,99146.56
2023-03-20T16:11:40.612Z,99175.91
2023-03-20T16:14:16.251Z,99144.72
2023-03-20T16:17:18.823Z,99178.53
2023-03-20T16:19:55.008Z,99163.91
2023-03-20T16:22:32.536Z,99142.63
2023-03-20T16:25:02.194Z,99170.84
2023-03-20T16:27:36.390Z,99161.06
2023-03-20T16:30:09.920Z,99147.50
2023-03-20T16:32:56.652Z,99149.72
2023-03-20T16:35:36.703Z,99147.50
2023-03-20T16:38:26.913Z,99165.47
2023-03-20T16:40:58.602Z,99145.41
2023-03-20T16:43:33.037Z,99162.03
2023-03-20T16:46:13.132Z,99161.53
2023-03-20T16:48:48.556Z,99167.56
2023-03-20T16:51:29.927Z,99160.63
2023-03-20T16:53:59.572Z,99143.19
2023-03-20T16:56:31.092Z,99157.34
2023-03-20T16:59:00.699Z,99152.59
2023-03-20T17:01:31.366Z,99152.88
2023-03-20T17:04:26.217Z,99139.72
2023-03-20T17:07:04.461Z,99143.19
2023-03-20T17:09:32.444Z,99150.94
2023-03-20T17:15:40.914Z,99150.31
2023-03-20T17:18:15.886Z,99145.88
2023-03-20T17:20:43.414Z,99152.81
2023-03-20T17:23:27.911Z,99125.50
2023-03-20T17:25:56.236Z,99124.53
2023-03-20T17:28:31.832Z,99144.22
2023-03-20T17:31:01.755Z,99132.75
2023-03-20T17:33:31.128Z,99109.91
2023-03-20T17:36:02.194Z,99119.63
2023-03-20T17:38:32.797Z,99117.56
2023-03-20T17:41:04.424Z,99123.81
2023-03-20T17:43:31.948Z,99137.81
2023-03-20T17:46:14.369Z,99104.19
2023-03-20T17:48:44.539Z,99105.94
2023-03-20T17:51:24.975Z,99132.22
2023-03-20T17:54:01.079Z,99105.75
2023-03-20T17:56:33.602Z,99128.66
2023-03-20T17:59:10.094Z,99146.13
2023-03-20T18:01:37.531Z,99118.41
2023-03-20T18:04:04.780Z,99125.09
2023-03-20T18:06:33.868Z,99132.28
2023-03-20T18:09:02.152Z,99106.78
2023-03-20T18:11:38.738Z,99126.06
2023-03-20T18:14:13.644Z,99115.63
2023-03-20T18:16:43.305Z,99124.69
2023-03-20T18:19:26.647Z,99111.22
2023-03-20T18:22:04.161Z,99102.34
2023-03-20T18:24:33.260Z,99122.69
2023-03-20T18:27:01.167Z,99107.81
2023-03-20T18:29:28.571Z,99107.06
2023-03-20T18:31:55.954Z,99093.69
2023-03-20T18:34:25.388Z,99108.50
2023-03-20T18:36:55.046Z,99106.22
2023-03-20T18:39:24.725Z,99112.28
2023-03-20T18:41:54.312Z,99102.94
2023-03-20T18:44:24.909Z,99078.66
2023-03-20T18:47:01.291Z,99084.13
2023-03-20T18:49:28.693Z,99077.59
2023-03-20T18:51:56.004Z,99072.53
2023-03-20T18:54:23.223Z,99089.72
2023-03-20T18:56:55.764Z,99078.72
2023-03-20T18:59:25.990Z,99086.78
2023-03-20T19:01:53.366Z,99066.50
2023-03-20T19:04:23.262Z,99058.78
2023-03-20T19:06:50.549Z,99067.59
2023-03-20T19:09:18.513Z,99063.59
2023-03-20T19:11:48.261Z,99064.72
2023-03-20T19:14:15.664Z,99042.72
2023-03-20T19:16:43.056Z,99079.75
2023-03-20T19:19:12.122Z,99065.56
2023-03-20T19:21:39.503Z,99057.06
2023-03-20T19:24:07.445Z,99061.78
2023-03-20T19:26:36.485Z,99050.31
2023-03-20T19:29:08.757Z,99077.97
2023-03-20T19:31:41.802Z,99072.34
2023-03-20T19:34:24.023Z,99073.31
2023-03-20T19:36:56.447Z,99052.31
2023-03-20T19:39:32.497Z,99076.13
2023-03-20T19:42:15.608Z,99071.97
2023-03-20T19:44:51.525Z,99071.97
2023-03-20T19:47:18.804Z,99046.06
2023-03-20T19:49:46.393Z,99041.31
2023-03-20T19:52:28.405Z,99047.34
2023-03-20T19:55:02.964Z,99052.72
2023-03-20T19:57:30.896Z,99053.13
2023-03-20T20:00:39.812Z,99042.84
2023-03-20T20:02:46.280Z,99045.25
2023-03-20T20:05:29.941Z,99033.91
2023-03-20T20:08:22.398Z,99019.72
2023-03-20T20:10:50.170Z,99042.13
2023-03-20T20:13:20.015Z,99042.84
2023-03-20T20:15:48.189Z,99035.13
2023-03-20T20:18:18.648Z,99021.50
2023-03-20T20:21:37.587Z,99025.13
2023-03-20T20:23:33.702Z,99008.94
2023-03-20T20:26:01.156Z,99015.28
2023-03-20T20:28:28.345Z,99005.31
2023-03-20T20:30:57.065Z,99001.84
2023-03-20T20:33:28.760Z,99014.13
2023-03-20T20:36:42.184Z,99011.28
2023-03-20T20:38:51.219Z,98987.00
2023-03-20T20:41:18.852Z,98994.88
2023-03-20T20:44:14.673Z,99003.31
2023-03-20T20:46:37.015Z,99006.41
2023-03-20T20:49:18.051Z,98986.63
2023-03-20T20:51:45.299Z,98985.88
2023-03-20T20:54:12.412Z,99002.34
2023-03-20T20:56:39.830Z,99001.72
2023-03-20T20:59:07.572Z,98987.25
2023-03-20T21:01:35.223Z,98981.53
2023-03-20T21:04:02.540Z,98983.44
2023-03-20T21:06:57.995Z,98993.97
2023-03-20T21:09:17.131Z,98989.28
2023-03-20T21:11:47.231Z,98988.44
2023-03-20T21:14:14.710Z,98983.06
2023-03-20T21:16:42.156Z,98985.34
2023-03-20T21:19:12.056Z,98983.25
2023-03-20T21:21:40.660Z,98984.78
2023-03-20T21:24:30.506Z,98985.31
2023-03-20T21:26:59.365Z,98992.22
2023-03-20T21:29:27.056Z,98993.59
2023-03-20T21:31:59.056Z,98984.09
2023-03-20T21:34:26.524Z,98971.38
2023-03-20T21:36:57.266Z,98971.88
2023-03-20T21:39:24.790Z,98969.53
2023-03-20T21:41:54.272Z,98972.91
2023-03-20T21:45:01.118Z,98972.50
2023-03-20T21:50:41.819Z,98949.34
2023-03-20T21:53:31.953Z,98947.50
2023-03-20T21:59:03.699Z,98947.84
2023-03-20T22:01:49.026Z,98943.59
2023-03-20T22:10:10.965Z,98938.31
2023-03-20T22:24:31.157Z,98936.56
2023-03-20T22:38:34.547Z,98914.38
2023-03-20T22:44:24.925Z,98900.69
2023-03-20T22:46:41.907Z,98895.50
2023-03-20T22:48:59.759Z,98899.41
2023-03-20T22:51:34.205Z,98898.22
2023-03-20T22:54:02.896Z,98875.91
2023-03-20T22:56:32.886Z,98884.78
2023-03-20T22:59:03.665Z,98878.41
2023-03-20T23:01:33.236Z,98891.06
2023-03-20T23:04:00.551Z,98902.19
2023-03-20T23:06:27.636Z,98874.34
2023-03-20T23:08:58.414Z,98870.66
2023-03-20T23:11:27.770Z,98884.09
2023-03-20T23:13:58.009Z,98876.13
2023-03-20T23:16:25.034Z,98865.97
2023-03-20T23:18:52.378Z,98869.66
2023-03-20T23:21:22.067Z,98871.34
2023-03-20T23:23:49.860Z,98867.38
2023-03-20T23:26:32.589Z,98877.13
2023-03-20T23:29:03.509Z,98866.84
2023-03-20T23:31:33.010Z,98870.16
2023-03-20T23:34:02.993Z,98865.84
2023-03-20T23:36:37.745Z,98846.97
2023-03-20T23:39:06.357Z,98855.03
2023-03-20T23:42:05.000Z,98853.38
2023-03-20T23:44:24.238Z,98851.38
2023-03-20T23:46:51.408Z,98832.97
2023-03-20T23:49:23.868Z,98825.00
2023-03-20T23:51:51.139Z,98822.34
2023-03-20T23:54:18.169Z,98821.78
2023-03-20T23:56:47.122Z,98818.88
